Hudson, New York
Current Conditions -  °F | °C
As of 5:54 PM on Wednesday 22 Oct 2014 (Local Time) from KPSF Reporting Station
Overcast Overcast  
Wind Chill: 44°   Ceiling: 1500
Heat Index: 49°   Visibility: 8mi
Dew Point: 46°   Wind: 12mph
Humidity: 90%   Direction: 30°NNE
Pressure: 29.92"   Gusts: 17mph
Location:  42.25°N, 73.79°W
Report Text: KPSF 222154Z AUTO 03010G15KT 8SM BKN015 OVC022 09/08 A2992 RMK AO2 RAB21E45 SLP127 P0000 T00940078
Loading
Personal Weather Stations






























Interactive Weather Map
Tropical Storm Tracking
New forecast layout! Learn more

10-Day Weather Forecast

Advertisements
Track Severe Weather on mobile